Time;durP1;ratioP1;P1;durP2;ratioP2;P2;SDS_P1;SDS_P2;PMS_P1;PMS_P2;Temp;Humidity;BMP_temperature;BMP_pressure;BME280_temperature;BME280_humidity;BME280_pressure;Samples;Min_cycle;Max_cycle;Signal;HPM_P1;HPM_P2
2023/06/12 00:00:51;;;;;;;6.47;3.22;;;18.50;99.90;;;;;;5037898;28;20041;-83
2023/06/12 00:03:19;;;;;;;9.18;3.78;;;18.40;99.90;;;;;;5042143;28;20033;-83
2023/06/12 00:05:45;;;;;;;5.40;3.25;;;18.40;99.90;;;;;;5044118;28;20037;-83
2023/06/12 00:08:17;;;;;;;4.30;3.00;;;18.30;99.90;;;;;;5052282;28;20115;-83
2023/06/12 00:10:45;;;;;;;11.55;3.45;;;18.20;1.00;;;;;;5056297;28;20044;-83
2023/06/12 00:13:11;;;;;;;6.75;3.60;;;18.20;43.80;;;;;;5058765;28;20052;-83
2023/06/12 00:15:38;;;;;;;5.38;3.15;;;18.10;71.50;;;;;;5042843;28;20044;-83
2023/06/12 00:18:07;;;;;;;5.63;3.40;;;18.10;99.90;;;;;;5040161;28;20055;-83
2023/06/12 00:20:33;;;;;;;7.25;3.25;;;18.00;99.90;;;;;;5088526;28;20606;-83
2023/06/12 00:22:58;;;;;;;6.05;3.40;;;18.00;99.90;;;;;;5071529;28;20067;-83
2023/06/12 00:25:27;;;;;;;4.68;3.05;;;17.90;1.00;;;;;;5041319;28;20033;-83
2023/06/12 00:27:53;;;;;;;8.05;3.50;;;17.90;99.90;;;;;;5058570;28;20062;-83
2023/06/12 00:30:18;;;;;;;6.97;3.22;;;17.90;99.90;;;;;;5044317;28;20369;-83
2023/06/12 00:32:47;;;;;;;6.57;3.25;;;17.80;99.90;;;;;;5043574;28;20504;-83
2023/06/12 00:35:18;;;;;;;4.90;3.50;;;17.80;1.00;;;;;;5055322;28;20370;-83
2023/06/12 00:37:45;;;;;;;4.82;3.03;;;17.70;99.90;;;;;;5055759;28;20037;-83
2023/06/12 00:40:11;;;;;;;6.97;3.70;;;17.70;99.90;;;;;;5057814;28;20106;-83
2023/06/12 00:42:45;;;;;;;8.32;3.20;;;17.70;99.90;;;;;;5069653;28;20043;-83
2023/06/12 00:45:12;;;;;;;6.27;3.20;;;17.60;99.90;;;;;;5056220;28;20364;-83
2023/06/12 00:47:38;;;;;;;7.45;3.70;;;17.50;99.90;;;;;;5040232;28;20036;-83
2023/06/12 00:50:12;;;;;;;8.75;3.28;;;17.50;99.90;;;;;;5040894;28;20037;-83
2023/06/12 00:52:47;;;;;;;8.73;3.13;;;17.40;99.90;;;;;;5068364;28;20080;-83
2023/06/12 00:55:14;;;;;;;6.45;3.38;;;17.40;99.90;;;;;;5040606;28;20040;-83
2023/06/12 00:57:44;;;;;;;5.93;3.38;;;17.30;99.90;;;;;;5041482;28;20135;-83
2023/06/12 01:00:12;;;;;;;7.13;3.20;;;17.30;99.90;;;;;;5043311;28;20044;-83
2023/06/12 01:02:45;;;;;;;8.35;2.95;;;17.20;95.40;;;;;;5042196;28;20040;-83
2023/06/12 01:05:17;;;;;;;7.63;3.17;;;17.20;99.90;;;;;;5034896;28;20032;-83
2023/06/12 01:07:50;;;;;;;6.63;3.53;;;17.20;1.00;;;;;;5054899;28;20041;-83
2023/06/12 01:10:39;;;;;;;5.63;3.25;;;17.10;99.90;;;;;;5054570;28;20044;-83
2023/06/12 01:13:06;;;;;;;6.53;3.13;;;17.00;99.90;;;;;;5054920;28;20348;-83
2023/06/12 01:15:32;;;;;;;5.47;3.58;;;16.90;99.90;;;;;;5043169;28;20193;-83
2023/06/12 01:17:58;;;;;;;6.50;2.90;;;16.90;99.90;;;;;;5039851;28;20135;-83
2023/06/12 01:20:24;;;;;;;7.15;3.53;;;16.80;1.00;;;;;;5042648;28;20036;-83
2023/06/12 01:23:12;;;;;;;11.02;3.58;;;16.70;1.00;;;;;;5054410;28;20040;-83
2023/06/12 01:26:11;;;;;;;8.60;3.42;;;16.60;99.90;;;;;;5037056;28;20033;-84
2023/06/12 01:29:22;;;;;;;4.57;3.05;;;16.60;99.90;;;;;;5043186;28;20037;-83
2023/06/12 01:32:04;;;;;;;5.97;3.45;;;16.50;99.90;;;;;;5051818;28;20051;-83
2023/06/12 01:34:50;;;;;;;4.60;3.15;;;16.40;99.90;;;;;;5041779;28;20044;-83
2023/06/12 01:37:31;;;;;;;8.55;3.42;;;16.40;99.90;;;;;;5042801;28;20039;-83
2023/06/12 01:40:02;;;;;;;6.38;3.30;;;16.40;99.90;;;;;;5036566;28;20169;-83
2023/06/12 01:42:30;;;;;;;7.95;3.33;;;16.40;99.90;;;;;;5057693;28;20048;-83
2023/06/12 01:44:56;;;;;;;6.95;3.65;;;16.30;99.90;;;;;;5043137;28;20358;-83
2023/06/12 01:47:22;;;;;;;7.47;3.40;;;16.30;99.90;;;;;;5066627;28;20068;-83
2023/06/12 01:49:51;;;;;;;8.10;3.58;;;16.20;99.90;;;;;;5052878;28;20036;-83
2023/06/12 01:52:17;;;;;;;8.23;3.50;;;16.10;99.90;;;;;;5043053;28;20403;-83
2023/06/12 01:54:49;;;;;;;7.88;3.13;;;16.00;99.90;;;;;;5036656;28;20095;-83
2023/06/12 01:57:21;;;;;;;4.70;3.17;;;15.90;99.90;;;;;;5038301;28;20143;-83
2023/06/12 01:59:53;;;;;;;8.82;3.70;;;15.90;99.90;;;;;;5064889;28;20460;-83
2023/06/12 02:02:18;;;;;;;7.03;3.95;;;15.90;99.90;;;;;;5054420;28;20041;-83
2023/06/12 02:04:47;;;;;;;5.07;3.50;;;15.80;99.90;;;;;;5037656;28;20127;-83
2023/06/12 02:07:13;;;;;;;9.38;3.50;;;15.80;99.90;;;;;;5039308;28;20553;-83
2023/06/12 02:09:39;;;;;;;6.60;3.63;;;15.70;99.90;;;;;;5055144;28;20123;-83
2023/06/12 02:12:07;;;;;;;5.72;3.58;;;15.60;99.90;;;;;;5035502;28;20478;-83
2023/06/12 02:14:33;;;;;;;9.13;3.97;;;15.60;99.90;;;;;;5083983;28;20115;-83
2023/06/12 02:17:02;;;;;;;7.85;3.47;;;15.60;99.90;;;;;;5038851;28;20448;-83
2023/06/12 02:19:28;;;;;;;7.05;3.60;;;15.50;99.90;;;;;;5040569;28;20036;-83
2023/06/12 02:21:55;;;;;;;6.63;3.33;;;15.40;99.90;;;;;;5038575;28;20499;-83
2023/06/12 02:24:27;;;;;;;6.22;3.38;;;15.40;99.90;;;;;;5037975;28;20076;-83
2023/06/12 02:26:55;;;;;;;8.40;3.83;;;15.40;99.90;;;;;;5038112;28;20203;-83
2023/06/12 02:29:21;;;;;;;7.53;4.15;;;15.30;99.90;;;;;;5045537;28;20102;-83
2023/06/12 02:31:47;;;;;;;5.95;3.70;;;15.30;99.90;;;;;;5040025;28;20044;-83
2023/06/12 02:34:12;;;;;;;7.28;3.70;;;15.30;99.90;;;;;;5041378;28;20048;-84
2023/06/12 02:36:39;;;;;;;7.47;3.70;;;15.30;99.90;;;;;;5042143;28;20504;-83
2023/06/12 02:39:07;;;;;;;5.75;3.30;;;15.20;99.90;;;;;;5037913;28;20056;-83
2023/06/12 02:41:35;;;;;;;7.00;3.95;;;15.20;99.90;;;;;;5055080;28;20118;-83
2023/06/12 02:44:01;;;;;;;10.23;4.00;;;15.20;99.90;;;;;;5033400;28;20480;-83
2023/06/12 02:46:27;;;;;;;7.40;3.70;;;15.10;99.90;;;;;;5049028;28;20151;-83
2023/06/12 02:48:53;;;;;;;6.68;3.40;;;15.00;99.90;;;;;;5085806;28;21569;-83
2023/06/12 02:51:18;;;;;;;7.35;3.60;;;15.00;99.90;;;;;;5050595;28;20076;-83
2023/06/12 02:53:44;;;;;;;5.93;3.97;;;14.90;99.90;;;;;;5055932;28;20399;-83
2023/06/12 02:56:09;;;;;;;7.63;3.83;;;15.00;99.90;;;;;;5033444;28;20099;-83
2023/06/12 02:58:35;;;;;;;8.60;3.50;;;14.90;99.90;;;;;;5052343;28;20151;-83
2023/06/12 03:01:04;;;;;;;7.10;3.97;;;14.90;99.90;;;;;;5039470;28;20047;-83
2023/06/12 03:03:29;;;;;;;9.48;3.67;;;14.80;99.90;;;;;;5037081;28;20529;-83
2023/06/12 03:05:55;;;;;;;7.18;3.55;;;14.80;99.90;;;;;;5057494;28;20045;-83
2023/06/12 03:08:20;;;;;;;6.60;3.70;;;14.80;99.90;;;;;;5043587;28;20044;-83
2023/06/12 03:10:46;;;;;;;11.23;4.10;;;14.80;99.90;;;;;;5043323;28;20043;-83
2023/06/12 03:13:14;;;;;;;7.20;3.70;;;14.80;99.90;;;;;;5055405;28;20119;-83
2023/06/12 03:15:44;;;;;;;7.18;3.58;;;14.80;99.90;;;;;;5054743;28;20082;-83
2023/06/12 03:18:10;;;;;;;9.25;3.83;;;14.80;99.90;;;;;;5058154;28;20049;-83
2023/06/12 03:20:35;;;;;;;6.57;3.97;;;14.80;99.90;;;;;;5044001;28;20042;-83
2023/06/12 03:23:01;;;;;;;6.50;3.63;;;14.80;99.90;;;;;;5043283;28;20099;-83
2023/06/12 03:25:27;;;;;;;6.72;4.03;;;14.80;99.90;;;;;;5038488;28;20110;-83
2023/06/12 03:27:53;;;;;;;9.38;4.07;;;14.80;99.90;;;;;;5040796;28;20048;-83
2023/06/12 03:30:19;;;;;;;7.28;3.78;;;14.80;99.90;;;;;;5039784;28;20465;-83
2023/06/12 03:32:47;;;;;;;14.60;4.22;;;14.80;99.90;;;;;;5055671;28;20072;-83
2023/06/12 03:35:13;;;;;;;6.05;3.80;;;14.70;99.90;;;;;;5053450;28;20577;-83
2023/06/12 03:37:38;;;;;;;8.20;4.00;;;14.80;99.90;;;;;;5043951;28;20044;-83
2023/06/12 03:40:05;;;;;;;7.97;4.22;;;14.80;99.90;;;;;;5052933;28;20053;-83
2023/06/12 03:42:31;;;;;;;8.50;3.38;;;14.80;99.90;;;;;;5043879;28;20040;-83
2023/06/12 03:44:56;;;;;;;6.40;4.00;;;14.80;99.90;;;;;;5075898;28;20051;-83
2023/06/12 03:47:22;;;;;;;5.63;4.15;;;14.80;99.90;;;;;;5056303;28;20040;-83
2023/06/12 03:49:47;;;;;;;6.78;4.18;;;14.80;99.90;;;;;;5052165;28;20029;-83
2023/06/12 03:52:13;;;;;;;6.95;3.78;;;14.80;99.90;;;;;;5042350;28;20037;-83
2023/06/12 03:54:39;;;;;;;6.28;4.00;;;14.90;99.90;;;;;;5042966;28;20037;-83
2023/06/12 03:57:06;;;;;;;7.32;4.40;;;14.80;99.90;;;;;;5038177;28;20124;-83
2023/06/12 03:59:32;;;;;;;7.10;3.88;;;14.90;99.90;;;;;;5058303;28;20523;-83
2023/06/12 04:01:58;;;;;;;6.45;3.83;;;14.90;99.90;;;;;;5034716;28;20049;-83
2023/06/12 04:04:24;;;;;;;6.53;3.67;;;14.90;99.90;;;;;;5039087;28;20044;-83
2023/06/12 04:06:50;;;;;;;5.38;4.05;;;15.00;99.90;;;;;;5041228;28;20135;-83
2023/06/12 04:09:16;;;;;;;4.95;4.07;;;15.00;99.90;;;;;;5039509;28;20131;-83
2023/06/12 04:11:43;;;;;;;9.00;4.18;;;15.10;99.90;;;;;;5039421;28;20041;-83
2023/06/12 04:14:09;;;;;;;5.30;4.00;;;15.10;99.90;;;;;;5054826;28;20071;-83
2023/06/12 04:16:35;;;;;;;5.32;3.88;;;15.20;99.90;;;;;;5054416;28;20032;-83
2023/06/12 04:19:05;;;;;;;9.05;4.22;;;15.30;99.90;;;;;;5037475;28;20033;-83
2023/06/12 04:21:32;;;;;;;7.22;3.80;;;15.30;99.90;;;;;;5042216;28;20086;-83
2023/06/12 04:24:01;;;;;;;8.82;4.70;;;15.40;99.90;;;;;;5044108;28;20242;-83
2023/06/12 04:26:27;;;;;;;7.25;4.10;;;15.50;99.90;;;;;;5044717;28;20072;-83
2023/06/12 04:28:54;;;;;;;8.80;4.68;;;15.60;99.90;;;;;;5043342;28;20222;-83
2023/06/12 04:31:20;;;;;;;8.68;3.95;;;15.70;99.90;;;;;;5053882;28;20037;-83
2023/06/12 04:33:48;;;;;;;7.88;4.45;;;15.70;99.90;;;;;;5052854;28;20157;-83
2023/06/12 04:36:17;;;;;;;7.88;4.22;;;15.90;99.90;;;;;;5039279;28;20125;-83
2023/06/12 04:38:45;;;;;;;5.80;4.20;;;16.00;99.90;;;;;;5055034;28;20064;-83
2023/06/12 04:41:11;;;;;;;8.00;4.30;;;16.10;99.90;;;;;;5041706;28;20442;-83
2023/06/12 04:43:36;;;;;;;7.00;4.35;;;16.20;99.90;;;;;;5043740;28;20044;-83
2023/06/12 04:46:02;;;;;;;10.38;4.32;;;16.30;99.90;;;;;;5040863;28;20189;-83
2023/06/12 04:48:31;;;;;;;7.10;4.13;;;16.40;99.90;;;;;;5055801;28;20111;-83
2023/06/12 04:50:58;;;;;;;10.45;4.07;;;16.50;99.90;;;;;;5056460;28;20044;-84
2023/06/12 04:53:29;;;;;;;7.10;4.40;;;16.60;99.90;;;;;;5040807;28;20120;-83
2023/06/12 04:56:00;;;;;;;10.52;3.92;;;16.70;99.90;;;;;;5061547;28;20047;-83
2023/06/12 04:58:26;;;;;;;6.70;3.58;;;16.70;99.90;;;;;;5088161;28;20552;-83
2023/06/12 05:00:55;;;;;;;10.45;4.03;;;16.80;99.90;;;;;;5057737;28;20052;-83
2023/06/12 05:03:21;;;;;;;6.70;4.22;;;16.90;99.90;;;;;;5043530;28;20044;-83
2023/06/12 05:05:48;;;;;;;7.68;4.25;;;17.00;99.90;;;;;;5046982;28;20051;-83
2023/06/12 05:08:16;;;;;;;7.28;4.78;;;17.10;99.90;;;;;;5045880;28;20047;-83
2023/06/12 05:10:42;;;;;;;9.73;3.90;;;17.10;99.90;;;;;;5059966;28;20032;-84
2023/06/12 05:13:08;;;;;;;8.73;3.80;;;17.20;99.90;;;;;;5051278;28;20029;-83
2023/06/12 05:15:33;;;;;;;6.38;3.95;;;17.30;99.90;;;;;;5042292;28;21109;-83
2023/06/12 05:18:00;;;;;;;7.00;4.00;;;17.40;99.90;;;;;;5044746;28;20503;-83
2023/06/12 05:20:26;;;;;;;6.70;4.28;;;17.50;99.90;;;;;;5051652;28;20045;-83
2023/06/12 05:22:52;;;;;;;7.65;4.38;;;17.50;99.90;;;;;;5042901;28;20131;-83
2023/06/12 05:25:21;;;;;;;8.55;4.82;;;17.50;99.90;;;;;;5048302;28;20146;-83
2023/06/12 05:27:46;;;;;;;9.20;4.30;;;17.60;99.90;;;;;;5051351;28;20467;-83
2023/06/12 05:30:12;;;;;;;11.52;4.55;;;17.70;99.90;;;;;;5045457;28;20140;-83
2023/06/12 05:32:38;;;;;;;10.15;4.30;;;17.70;99.90;;;;;;5050138;28;20093;-83
2023/06/12 05:35:04;;;;;;;8.30;4.35;;;17.70;99.90;;;;;;5046927;28;20032;-83
2023/06/12 05:37:29;;;;;;;9.77;4.80;;;17.80;99.90;;;;;;5047471;28;20052;-83
2023/06/12 05:39:55;;;;;;;10.15;4.45;;;17.90;99.90;;;;;;5059206;28;20055;-83
2023/06/12 05:42:23;;;;;;;8.10;4.60;;;18.00;99.90;;;;;;5047238;28;20041;-83
2023/06/12 05:44:49;;;;;;;6.35;4.60;;;17.90;99.90;;;;;;5042694;28;20059;-83
2023/06/12 05:47:15;;;;;;;8.52;4.72;;;18.00;99.90;;;;;;5039604;28;20543;-83
2023/06/12 05:49:41;;;;;;;6.50;4.53;;;18.10;99.90;;;;;;5050469;28;20361;-83
2023/06/12 05:52:07;;;;;;;7.50;4.28;;;18.20;99.90;;;;;;5051375;28;20101;-83
2023/06/12 05:54:33;;;;;;;11.05;4.60;;;18.20;99.90;;;;;;5042629;28;20039;-83
2023/06/12 05:56:59;;;;;;;9.15;4.97;;;18.30;99.90;;;;;;5046569;28;20102;-83
2023/06/12 05:59:25;;;;;;;8.68;4.82;;;18.40;99.90;;;;;;5048312;28;20056;-83
2023/06/12 06:01:50;;;;;;;9.20;4.70;;;18.50;99.90;;;;;;5037465;28;20086;-83
2023/06/12 06:04:16;;;;;;;10.35;5.13;;;18.60;99.90;;;;;;5049627;28;20052;-83
2023/06/12 06:06:42;;;;;;;7.63;4.57;;;18.70;99.90;;;;;;5053663;28;20102;-83
2023/06/12 06:09:08;;;;;;;7.10;4.40;;;18.80;99.90;;;;;;5054351;28;20484;-83
2023/06/12 06:11:33;;;;;;;12.82;5.07;;;18.80;99.90;;;;;;5036917;28;20040;-83
2023/06/12 06:13:59;;;;;;;8.88;4.80;;;18.90;99.90;;;;;;5040711;28;20255;-83
2023/06/12 06:16:25;;;;;;;7.38;4.60;;;19.00;99.90;;;;;;5050925;28;20098;-83
2023/06/12 06:18:51;;;;;;;11.30;4.50;;;19.00;99.90;;;;;;5039872;28;20455;-83
2023/06/12 06:21:20;;;;;;;9.77;4.85;;;19.10;99.90;;;;;;5055277;28;20094;-83
2023/06/12 06:23:45;;;;;;;8.68;4.38;;;19.20;99.90;;;;;;5041046;28;21162;-83
2023/06/12 06:26:11;;;;;;;9.55;5.07;;;19.30;99.90;;;;;;5041410;28;20082;-83
2023/06/12 06:28:37;;;;;;;8.43;4.90;;;19.30;99.90;;;;;;5040118;28;20443;-83
2023/06/12 06:31:06;;;;;;;11.73;5.25;;;19.40;99.90;;;;;;5052100;28;20041;-81
2023/06/12 06:33:35;;;;;;;7.32;5.20;;;19.40;99.90;;;;;;5039940;28;20040;-83
2023/06/12 06:36:01;;;;;;;7.28;4.90;;;19.50;99.90;;;;;;5039329;28;20048;-83
2023/06/12 06:38:27;;;;;;;11.27;4.88;;;19.50;99.90;;;;;;5043213;28;20056;-83
2023/06/12 06:40:53;;;;;;;11.38;4.65;;;19.50;99.90;;;;;;5045193;28;20380;-83
2023/06/12 06:43:19;;;;;;;6.75;4.78;;;19.60;99.90;;;;;;5045925;28;20047;-83
2023/06/12 06:45:45;;;;;;;9.18;4.90;;;19.70;99.90;;;;;;5044639;28;20120;-83
2023/06/12 06:48:15;;;;;;;7.90;5.00;;;19.70;99.90;;;;;;5040293;28;20579;-83
2023/06/12 06:50:42;;;;;;;12.07;5.32;;;19.90;99.90;;;;;;5041804;28;20033;-83
2023/06/12 06:53:08;;;;;;;6.53;4.50;;;19.90;99.90;;;;;;5056681;28;20072;-83
2023/06/12 06:55:33;;;;;;;9.43;5.00;;;20.00;99.90;;;;;;5059835;28;20083;-84
2023/06/12 06:57:59;;;;;;;9.23;4.80;;;20.20;99.90;;;;;;5055290;28;20049;-83
2023/06/12 07:00:28;;;;;;;9.02;5.40;;;20.20;99.90;;;;;;5052609;28;20484;-83
2023/06/12 07:02:53;;;;;;;12.07;5.78;;;20.30;99.90;;;;;;5056028;28;20044;-83
2023/06/12 07:05:20;;;;;;;8.82;5.30;;;20.20;99.90;;;;;;5042804;28;20090;-83
2023/06/12 07:07:47;;;;;;;8.57;5.28;;;20.40;99.90;;;;;;5038892;28;20056;-83
2023/06/12 07:10:13;;;;;;;8.90;5.45;;;20.20;99.90;;;;;;5043885;28;20040;-82
2023/06/12 07:12:39;;;;;;;11.35;5.25;;;20.40;99.90;;;;;;5060044;28;20483;-83
2023/06/12 07:15:06;;;;;;;9.57;5.32;;;20.60;99.90;;;;;;5043808;28;20073;-83
2023/06/12 07:17:31;;;;;;;9.35;5.47;;;20.60;99.90;;;;;;5055894;28;20081;-83
2023/06/12 07:19:57;;;;;;;7.50;5.40;;;20.70;99.90;;;;;;5043892;28;20108;-83
2023/06/12 07:22:23;;;;;;;7.15;5.55;;;20.70;99.90;;;;;;5060739;28;20082;-84
2023/06/12 07:24:51;;;;;;;13.70;5.53;;;20.90;99.90;;;;;;5044870;28;20562;-84
2023/06/12 07:27:23;;;;;;;7.15;5.05;;;21.20;99.90;;;;;;5053988;28;20542;-83
2023/06/12 07:29:49;;;;;;;8.43;5.38;;;21.10;99.90;;;;;;5046161;28;20040;-83
2023/06/12 07:32:21;;;;;;;11.43;5.50;;;21.30;99.90;;;;;;5054321;28;20035;-83
2023/06/12 07:34:51;;;;;;;9.38;5.38;;;21.10;99.90;;;;;;5039687;28;20041;-83
2023/06/12 07:37:20;;;;;;;9.05;5.30;;;21.30;99.90;;;;;;5056121;28;20040;-83
2023/06/12 07:39:57;;;;;;;9.48;5.57;;;21.30;99.90;;;;;;5058805;28;20495;-84
2023/06/12 07:42:23;;;;;;;8.18;4.95;;;21.40;99.90;;;;;;5054135;28;20093;-83
2023/06/12 07:44:48;;;;;;;7.97;5.63;;;21.60;99.90;;;;;;5043812;28;20456;-83
2023/06/12 07:47:14;;;;;;;8.02;5.40;;;21.50;1.00;;;;;;5045063;28;20116;-83
2023/06/12 07:49:39;;;;;;;10.52;5.22;;;21.60;99.90;;;;;;5042771;28;20044;-83
2023/06/12 07:52:05;;;;;;;7.22;4.70;;;21.80;99.90;;;;;;5040937;28;20040;-83
2023/06/12 07:54:31;;;;;;;9.40;5.35;;;22.00;99.90;;;;;;5056548;28;20036;-83
2023/06/12 07:56:57;;;;;;;11.23;5.43;;;22.00;1.00;;;;;;5052184;28;20420;-84
2023/06/12 07:59:23;;;;;;;8.63;5.65;;;22.10;99.90;;;;;;5055582;28;20139;-84
2023/06/12 08:01:51;;;;;;;9.77;5.55;;;22.20;99.90;;;;;;5041939;28;20450;-83
2023/06/12 08:04:17;;;;;;;8.18;5.35;;;22.40;50.20;;;;;;5042768;28;20068;-83
2023/06/12 08:06:44;;;;;;;11.18;5.40;;;22.40;99.90;;;;;;5050752;28;20036;-83
2023/06/12 08:09:10;;;;;;;10.05;5.25;;;22.60;99.90;;;;;;5055788;28;20499;-83
2023/06/12 08:11:36;;;;;;;10.57;5.13;;;22.50;1.00;;;;;;5043787;28;20102;-83
2023/06/12 08:14:02;;;;;;;6.47;4.95;;;22.60;99.90;;;;;;5041739;28;20139;-83
2023/06/12 08:16:27;;;;;;;20.70;5.88;;;22.80;1.00;;;;;;5049623;28;20140;-83
2023/06/12 08:18:56;;;;;;;11.90;5.22;;;22.80;99.90;;;;;;5043739;28;20043;-83
2023/06/12 08:21:22;;;;;;;12.20;5.43;;;23.00;99.90;;;;;;5071626;28;20040;-83
2023/06/12 08:23:47;;;;;;;11.18;5.68;;;23.20;99.90;;;;;;5054597;28;20052;-83
2023/06/12 08:26:13;;;;;;;21.05;5.72;;;23.20;99.90;;;;;;5053137;28;20037;-83
2023/06/12 08:28:38;;;;;;;14.13;5.50;;;23.20;99.90;;;;;;5044708;28;20048;-83
2023/06/12 08:31:04;;;;;;;9.60;5.38;;;23.00;99.90;;;;;;5044569;28;20431;-82
2023/06/12 08:33:33;;;;;;;14.88;5.70;;;23.30;99.90;;;;;;5042444;28;20036;-83
2023/06/12 08:35:59;;;;;;;9.10;5.78;;;23.00;99.90;;;;;;5038674;28;20159;-83
2023/06/12 08:38:25;;;;;;;126.57;12.68;;;23.10;99.90;;;;;;5059513;28;20483;-83
2023/06/12 08:40:56;;;;;;;9.82;5.55;;;23.30;1.00;;;;;;5053519;28;20054;-83
2023/06/12 08:43:22;;;;;;;9.65;5.18;;;23.20;99.90;;;;;;5041144;28;20032;-83
2023/06/12 08:45:51;;;;;;;9.02;5.10;;;23.50;99.90;;;;;;5055996;28;20490;-83
2023/06/12 08:48:18;;;;;;;9.25;5.20;;;23.80;65.70;;;;;;5043422;28;20037;-83
2023/06/12 08:50:45;;;;;;;10.20;5.45;;;23.90;93.50;;;;;;5041166;28;20037;-83
2023/06/12 08:53:11;;;;;;;7.15;5.65;;;24.10;99.70;;;;;;5043454;28;20070;-83
2023/06/12 08:55:39;;;;;;;8.50;5.30;;;24.30;99.90;;;;;;5067648;28;20170;-82
2023/06/12 08:58:07;;;;;;;8.20;5.25;;;24.20;97.40;;;;;;5052720;28;20041;-83
2023/06/12 09:00:33;;;;;;;9.10;5.65;;;24.50;99.90;;;;;;5043823;28;20040;-83
2023/06/12 09:03:00;;;;;;;8.10;5.18;;;24.60;1.00;;;;;;5044455;28;20526;-83
2023/06/12 09:05:33;;;;;;;9.73;5.13;;;24.60;99.90;;;;;;5039420;28;20040;-83
2023/06/12 09:08:04;;;;;;;10.93;5.07;;;24.80;99.90;;;;;;5055033;28;20167;-83
2023/06/12 09:10:34;;;;;;;8.95;5.38;;;25.00;99.90;;;;;;5049434;28;20316;-83
2023/06/12 09:13:04;;;;;;;8.02;4.82;;;25.00;99.90;;;;;;5041652;28;20511;-82
2023/06/12 09:15:30;;;;;;;7.43;4.78;;;25.20;99.90;;;;;;5057141;28;20422;-83
2023/06/12 09:17:56;;;;;;;7.30;4.72;;;25.10;19.90;;;;;;5042507;28;20067;-83
2023/06/12 09:20:29;;;;;;;8.98;4.80;;;25.40;99.90;;;;;;5033365;28;20113;-83
2023/06/12 09:22:56;;;;;;;8.05;5.03;;;25.40;51.10;;;;;;5053469;28;20139;-83
2023/06/12 09:25:26;;;;;;;8.68;4.97;;;25.40;1.00;;;;;;5041604;28;20119;-83
2023/06/12 09:27:52;;;;;;;8.68;4.90;;;25.30;23.60;;;;;;5042967;28;20087;-83
2023/06/12 09:30:18;;;;;;;8.30;5.20;;;25.50;41.50;;;;;;5053747;28;20140;-83
2023/06/12 09:32:47;;;;;;;7.07;5.50;;;25.50;1.00;;;;;;5048770;28;20099;-83
2023/06/12 09:35:13;;;;;;;8.95;5.40;;;25.50;27.50;;;;;;5051758;28;20100;-82
2023/06/12 09:37:40;;;;;;;6.70;5.10;;;25.90;83.50;;;;;;5047724;28;20047;-82
2023/06/12 09:40:15;;;;;;;7.53;5.00;;;25.90;1.00;;;;;;5040538;28;20053;-83
2023/06/12 09:42:42;;;;;;;8.10;5.07;;;25.90;99.90;;;;;;5039491;28;20809;-83
2023/06/12 09:45:20;;;;;;;9.98;5.32;;;26.10;13.90;;;;;;5042172;28;20047;-83
2023/06/12 09:47:48;;;;;;;8.18;5.20;;;25.90;1.00;;;;;;5054631;28;20120;-83
2023/06/12 09:50:15;;;;;;;6.18;5.18;;;25.90;1.00;;;;;;5053116;28;20111;-83
2023/06/12 09:52:43;;;;;;;5.75;4.60;;;26.20;67.10;;;;;;5031671;28;20040;-83
2023/06/12 09:55:15;;;;;;;8.27;5.25;;;26.60;71.50;;;;;;5039671;28;20037;-83
2023/06/12 09:57:43;;;;;;;6.97;5.30;;;26.50;1.00;;;;;;5051858;28;20055;-83
2023/06/12 10:00:11;;;;;;;9.10;5.45;;;26.50;53.30;;;;;;5037980;28;20044;-83
2023/06/12 10:02:41;;;;;;;5.90;4.93;;;26.50;1.00;;;;;;5034934;28;20041;-83
2023/06/12 10:05:22;;;;;;;8.40;4.80;;;26.90;1.00;;;;;;5086164;28;20041;-83
2023/06/12 10:07:52;;;;;;;8.27;5.43;;;27.10;1.00;;;;;;5052720;28;20056;-83
2023/06/12 10:10:19;;;;;;;9.10;5.60;;;27.10;1.00;;;;;;5040521;28;20316;-83
2023/06/12 10:12:47;;;;;;;11.13;5.55;;;27.50;1.00;;;;;;5053103;28;20052;-82
2023/06/12 10:15:15;;;;;;;8.43;5.35;;;27.40;99.90;;;;;;5051964;28;20044;-83
2023/06/12 10:17:41;;;;;;;8.02;4.95;;;27.20;99.90;;;;;;5037114;28;20037;-83
2023/06/12 10:20:09;;;;;;;6.38;5.18;;;27.30;99.90;;;;;;5040559;28;20488;-83
2023/06/12 10:22:35;;;;;;;8.13;4.93;;;27.30;99.90;;;;;;5088988;28;20627;-83
2023/06/12 10:25:05;;;;;;;8.23;4.93;;;27.80;99.90;;;;;;5051483;28;20045;-83
2023/06/12 10:27:32;;;;;;;6.28;4.90;;;28.00;99.90;;;;;;5053549;28;20036;-82
2023/06/12 10:29:59;;;;;;;8.70;4.82;;;28.10;99.90;;;;;;5038262;28;20076;-83
2023/06/12 10:32:31;;;;;;;6.68;5.07;;;28.10;99.90;;;;;;5039353;28;20710;-83
2023/06/12 10:34:57;;;;;;;11.02;5.60;;;28.10;99.90;;;;;;5071133;28;20066;-83
2023/06/12 10:37:30;;;;;;;15.77;5.25;;;28.00;99.90;;;;;;5069717;28;20049;-83
2023/06/12 10:40:17;;;;;;;7.85;5.72;;;28.40;99.90;;;;;;5047245;28;20156;-82
2023/06/12 10:42:47;;;;;;;7.25;4.80;;;28.40;99.90;;;;;;5034119;28;20047;-82
2023/06/12 10:45:17;;;;;;;9.52;4.90;;;28.10;99.90;;;;;;5042919;28;20036;-83
2023/06/12 10:47:59;;;;;;;7.25;5.00;;;28.20;99.90;;;;;;5048847;28;20036;-83
2023/06/12 10:50:26;;;;;;;7.78;4.90;;;28.50;99.90;;;;;;5041078;28;20040;-83
2023/06/12 10:52:56;;;;;;;13.00;5.68;;;28.60;99.90;;;;;;5049955;28;20143;-83
2023/06/12 10:55:23;;;;;;;8.85;5.70;;;28.40;99.90;;;;;;5039941;28;20032;-83
2023/06/12 10:58:00;;;;;;;10.32;5.18;;;28.80;99.90;;;;;;5047033;28;20048;-83
2023/06/12 11:00:36;;;;;;;8.52;5.68;;;28.80;99.90;;;;;;5048495;28;20496;-83
2023/06/12 11:03:13;;;;;;;11.68;6.03;;;28.80;99.90;;;;;;5043065;28;20045;-83
2023/06/12 11:05:46;;;;;;;7.50;5.30;;;28.70;99.90;;;;;;5041894;28;20048;-82
2023/06/12 11:08:12;;;;;;;8.52;5.20;;;29.10;99.90;;;;;;5035100;28;20491;-82
2023/06/12 11:10:41;;;;;;;10.68;5.57;;;29.50;99.90;;;;;;5041508;28;20036;-83
2023/06/12 11:13:07;;;;;;;9.70;5.32;;;29.50;99.90;;;;;;5036122;28;20047;-82
2023/06/12 11:15:46;;;;;;;8.25;5.43;;;29.60;78.10;;;;;;5037727;28;20112;-82
2023/06/12 11:18:13;;;;;;;6.90;5.10;;;29.30;19.10;;;;;;5041047;28;20130;-82
2023/06/12 11:20:40;;;;;;;7.75;5.50;;;29.30;14.70;;;;;;5051403;28;20052;-82
2023/06/12 11:23:06;;;;;;;8.52;5.32;;;29.80;32.00;;;;;;5049665;28;20518;-82
2023/06/12 11:25:33;;;;;;;6.20;5.00;;;29.60;2.30;;;;;;5040581;28;20048;-83
2023/06/12 11:27:59;;;;;;;5.88;5.30;;;30.10;7.80;;;;;;5034875;28;20698;-83
2023/06/12 11:30:25;;;;;;;8.07;4.93;;;30.00;12.10;;;;;;5040264;28;20056;-83
2023/06/12 11:32:50;;;;;;;6.00;5.10;;;30.30;1.00;;;;;;5055162;28;20476;-83
2023/06/12 11:35:16;;;;;;;7.63;5.18;;;30.50;1.00;;;;;;5040189;28;20068;-83
2023/06/12 11:37:42;;;;;;;6.05;5.10;;;30.70;1.00;;;;;;5052937;28;20492;-83
2023/06/12 11:40:11;;;;;;;10.05;5.65;;;30.70;1.00;;;;;;5043344;28;20048;-82
2023/06/12 11:42:42;;;;;;;8.38;5.10;;;30.80;1.00;;;;;;5053061;28;20040;-83
2023/06/12 11:45:13;;;;;;;12.45;5.32;;;30.90;1.00;;;;;;5039594;28;20080;-82
2023/06/12 11:47:40;;;;;;;7.10;5.70;;;30.30;99.90;;;;;;5041273;28;20276;-83
2023/06/12 11:50:08;;;;;;;6.90;5.15;;;31.20;1.00;;;;;;5050989;28;20585;-83
2023/06/12 11:52:35;;;;;;;7.45;6.07;;;31.40;1.00;;;;;;5052572;28;20480;-83
2023/06/12 11:55:10;;;;;;;8.30;5.70;;;31.20;1.00;;;;;;5038720;28;20484;-82
2023/06/12 11:57:36;;;;;;;8.93;5.55;;;30.70;1.00;;;;;;5044362;28;20045;-82
2023/06/12 12:00:19;;;;;;;8.88;5.47;;;31.10;1.00;;;;;;5046808;28;20498;-82
2023/06/12 12:02:51;;;;;;;6.47;5.72;;;31.40;99.90;;;;;;5072405;28;20565;-82
2023/06/12 12:05:22;;;;;;;7.55;5.88;;;31.80;1.00;;;;;;5040412;28;20411;-82
2023/06/12 12:07:57;;;;;;;7.22;5.53;;;32.10;1.00;;;;;;5056535;28;20041;-82
2023/06/12 12:10:24;;;;;;;;;;;31.90;99.90;;;;;;5049743;28;20045;-83
2023/06/12 12:12:51;;;;;;;8.93;5.60;;;31.80;99.90;;;;;;5069386;28;20003;-82
2023/06/12 12:15:20;;;;;;;6.97;5.82;;;30.40;99.90;;;;;;5042575;28;20033;-82
2023/06/12 12:17:47;;;;;;;11.13;5.78;;;30.70;99.90;;;;;;5050599;28;20045;-82
2023/06/12 12:20:18;;;;;;;7.15;5.03;;;31.20;99.90;;;;;;5056066;28;20036;-82
2023/06/12 12:22:48;;;;;;;6.70;5.75;;;30.20;99.90;;;;;;5043829;28;20613;-82
2023/06/12 12:25:22;;;;;;;7.65;5.93;;;29.90;99.90;;;;;;5041354;28;20036;-82
2023/06/12 12:27:49;;;;;;;;;;;30.10;99.90;;;;;;5050436;28;20186;-82
2023/06/12 12:30:19;;;;;;;8.23;5.15;;;31.40;99.90;;;;;;5083709;28;19923;-82
2023/06/12 12:32:49;;;;;;;7.68;5.47;;;31.50;99.90;;;;;;5044634;28;20033;-82
2023/06/12 12:35:15;;;;;;;8.27;5.45;;;31.70;99.90;;;;;;5039293;28;20028;-83
2023/06/12 12:37:42;;;;;;;8.85;5.55;;;32.20;99.90;;;;;;5041382;28;20614;-83
2023/06/12 12:40:10;;;;;;;9.00;5.50;;;32.30;99.90;;;;;;5056824;28;20127;-83
2023/06/12 12:42:46;;;;;;;6.68;5.35;;;32.50;99.90;;;;;;5069632;28;20048;-82
2023/06/12 12:45:13;;;;;;;7.43;5.55;;;32.40;99.90;;;;;;5045315;28;20140;-82
2023/06/12 12:47:44;;;;;;;6.47;5.28;;;32.80;99.90;;;;;;5040609;28;20036;-82
2023/06/12 12:50:11;;;;;;;6.28;5.45;;;32.90;99.90;;;;;;5041088;28;20130;-82
2023/06/12 12:52:37;;;;;;;6.13;5.50;;;33.30;99.90;;;;;;5050614;28;20453;-82